メインページ
METAR-TAF:

METAR-TAF

空港 :

重慶, 中華人民共和国

重慶江北国際空港

緯度: 29-31N, 経度: 106-29E, 海抜: 351m

現時点の気象観測

当レポートは36分前の19:00(UTC)に作成
の風 6kt
気温 10°C
湿度 76%
気圧 1019 hPa
視程10km以上
1,500メートル以下は雲なし、積乱雲なし

METAR: ZUCK 251900Z 01003MPS CAVOK 10/06 Q1019 NOSIG

時間: 03:36 (19:36 UTC)

予報

当レポートは4時間33分前の15:03(UTC)に作成
予報は25日の 18時(UTC)から 26日の 18時(UTC)まで有効
北/北東の風 6kt
視程: 5000m
高度4000ftの雲は散在している

TAF: ZUCK 251503Z 2518/2618 03003MPS 5000 BR SCT040 TX13/2608Z TN08/2522Z

4,000以上の空港の気象観測と天気予報(METAR報とTAF報)

利用可能な観測所は地図上に黄色い丸と赤い丸で示す。

丸の上にカーソルを重ねると観測所名を参照できる。

次にクリックすると気象観測と天気予報を参照できる。

マップの切り替え:黒色「×」印の緑ボタンをクリックして拡大、「-」印の緑ボタンをクリックして縮小、緑色の三角印をクリックして隣りの地図に切り替え


METAR-TAF: